Time;durP1;ratioP1;P1;durP2;ratioP2;P2;SDS_P1;SDS_P2;PMS_P1;PMS_P2;Temp;Humidity;BMP_temperature;BMP_pressure;BME280_temperature;BME280_humidity;BME280_pressure;Samples;Min_cycle;Max_cycle;Signal;HPM_P1;HPM_P2
2022/07/02 00:00:55;;;;;;;8.60;4.57;;;;;;;;;;5011833;28;20398;-56
2022/07/02 00:03:24;;;;;;;9.57;5.60;;;;;;;;;;5012012;28;20399;-56
2022/07/02 00:05:56;;;;;;;5.73;4.40;;;;;;;;;;5012105;28;20543;-56
2022/07/02 00:08:24;;;;;;;7.60;4.40;;;;;;;;;;5010800;28;20860;-55
2022/07/02 00:10:51;;;;;;;7.83;4.63;;;;;;;;;;5011566;28;20467;-55
2022/07/02 00:13:17;;;;;;;6.60;4.50;;;;;;;;;;5012151;28;20399;-55
2022/07/02 00:15:44;;;;;;;7.77;4.67;;;;;;;;;;5012199;28;20440;-56
2022/07/02 00:18:11;;;;;;;5.57;3.63;;;;;;;;;;5011953;28;20784;-56
2022/07/02 00:20:38;;;;;;;4.97;4.00;;;;;;;;;;5011789;28;20378;-56
2022/07/02 00:23:04;;;;;;;6.20;3.83;;;;;;;;;;5011845;28;20383;-55
2022/07/02 00:25:33;;;;;;;4.57;3.90;;;;;;;;;;5011645;28;20397;-55
2022/07/02 00:28:00;;;;;;;6.37;5.13;;;;;;;;;;5011864;28;20409;-56
2022/07/02 00:30:26;;;;;;;11.70;3.37;;;;;;;;;;5011566;28;20410;-56
2022/07/02 00:32:52;;;;;;;5.53;3.50;;;;;;;;;;5011745;28;20386;-56
2022/07/02 00:35:19;;;;;;;3.60;3.30;;;;;;;;;;5011601;28;20794;-56
2022/07/02 00:37:46;;;;;;;5.50;3.40;;;;;;;;;;5026419;23;20544;-53
2022/07/02 00:40:12;;;;;;;3.97;3.67;;;;;;;;;;4998577;28;20549;-52
2022/07/02 00:42:38;;;;;;;5.33;3.40;;;;;;;;;;5011679;28;20395;-55
2022/07/02 00:45:05;;;;;;;4.20;3.50;;;;;;;;;;5011650;28;20907;-53
2022/07/02 00:47:31;;;;;;;4.13;3.40;;;;;;;;;;5010968;28;20438;-55
2022/07/02 00:49:57;;;;;;;3.50;3.20;;;;;;;;;;5011268;28;20425;-53
2022/07/02 00:52:23;;;;;;;4.70;3.53;;;;;;;;;;5011137;28;21159;-53
2022/07/02 00:54:49;;;;;;;5.50;3.90;;;;;;;;;;5011366;28;20413;-53
2022/07/02 00:57:15;;;;;;;3.53;3.23;;;;;;;;;;5010984;28;20497;-53
2022/07/02 00:59:41;;;;;;;4.87;4.00;;;;;;;;;;5015065;28;20888;-54
2022/07/02 01:02:07;;;;;;;5.13;3.77;;;;;;;;;;5013923;28;20408;-53
2022/07/02 01:04:34;;;;;;;4.17;3.87;;;;;;;;;;5014566;28;20422;-53
2022/07/02 01:07:04;;;;;;;3.93;3.50;;;;;;;;;;5015002;28;20837;-53
2022/07/02 01:12:25;;;;;;;3.70;3.40;;;;;;;;;;5014837;28;20813;-53
2022/07/02 01:14:52;;;;;;;4.37;3.53;;;;;;;;;;5015086;28;20381;-53
2022/07/02 01:17:18;;;;;;;5.10;3.90;;;;;;;;;;5014962;28;20475;-53
2022/07/02 01:19:44;;;;;;;4.37;3.50;;;;;;;;;;5015078;28;20426;-55
2022/07/02 01:22:21;;;;;;;7.30;4.40;;;;;;;;;;5014801;28;20765;-53
2022/07/02 01:24:51;;;;;;;4.20;3.90;;;;;;;;;;5014956;28;20395;-56
2022/07/02 01:27:18;;;;;;;8.17;4.60;;;;;;;;;;5014901;28;20470;-53
2022/07/02 01:29:44;;;;;;;8.17;4.50;;;;;;;;;;5015404;28;20445;-55
2022/07/02 01:32:10;;;;;;;8.30;5.77;;;;;;;;;;5014745;28;20972;-54
2022/07/02 01:34:41;;;;;;;11.70;5.23;;;;;;;;;;5014990;28;20426;-55
2022/07/02 01:37:08;;;;;;;7.27;5.40;;;;;;;;;;5014477;28;20964;-54
2022/07/02 01:39:34;;;;;;;7.30;5.00;;;;;;;;;;5014702;28;20648;-54
2022/07/02 01:42:00;;;;;;;10.47;5.63;;;;;;;;;;5014679;28;20411;-53
2022/07/02 01:44:26;;;;;;;5.30;4.90;;;;;;;;;;5014829;28;20488;-53
2022/07/02 01:46:52;;;;;;;9.93;5.50;;;;;;;;;;5014804;28;20766;-53
2022/07/02 01:49:18;;;;;;;4.83;4.23;;;;;;;;;;5014326;28;20405;-54
2022/07/02 01:51:44;;;;;;;5.10;4.60;;;;;;;;;;5014179;28;20405;-54
2022/07/02 01:54:10;;;;;;;6.23;5.00;;;;;;;;;;5014579;28;20463;-53
2022/07/02 01:56:36;;;;;;;6.50;4.70;;;;;;;;;;5014133;28;20451;-55
2022/07/02 01:59:02;;;;;;;5.57;4.80;;;;;;;;;;5014244;28;20402;-55
2022/07/02 02:01:29;;;;;;;15.50;4.83;;;;;;;;;;5014072;28;20482;-54
2022/07/02 02:03:55;;;;;;;5.10;4.27;;;;;;;;;;5014077;28;20401;-56
2022/07/02 02:06:21;;;;;;;5.33;4.57;;;;;;;;;;5013815;28;20431;-55
2022/07/02 02:08:46;;;;;;;3.70;3.40;;;;;;;;;;5013445;28;20419;-57
2022/07/02 02:11:12;;;;;;;4.90;4.13;;;;;;;;;;5013454;28;20430;-54
2022/07/02 02:13:39;;;;;;;10.10;4.93;;;;;;;;;;5013759;28;20419;-54
2022/07/02 02:16:05;;;;;;;7.23;4.37;;;;;;;;;;5013613;28;20735;-54
2022/07/02 02:18:31;;;;;;;4.20;3.80;;;;;;;;;;5013883;28;20846;-54
2022/07/02 02:20:57;;;;;;;9.00;5.10;;;;;;;;;;5013262;28;20746;-54
2022/07/02 02:23:23;;;;;;;4.20;3.90;;;;;;;;;;5013779;28;20414;-54
2022/07/02 02:25:49;;;;;;;4.23;3.80;;;;;;;;;;5013310;28;20424;-54
2022/07/02 02:28:15;;;;;;;4.13;3.70;;;;;;;;;;5013729;28;20916;-54
2022/07/02 02:30:41;;;;;;;4.73;4.33;;;;;;;;;;5013156;28;20448;-55
2022/07/02 02:33:07;;;;;;;6.23;3.97;;;;;;;;;;5013195;28;20392;-55
2022/07/02 02:35:33;;;;;;;4.27;3.87;;;;;;;;;;5013113;28;20394;-54
2022/07/02 02:37:59;;;;;;;6.47;4.23;;;;;;;;;;5013358;28;20468;-54
2022/07/02 02:40:25;;;;;;;8.70;4.20;;;;;;;;;;5012905;28;20532;-55
2022/07/02 02:42:51;;;;;;;6.30;4.93;;;;;;;;;;5013488;28;20486;-56
2022/07/02 02:45:17;;;;;;;5.53;3.97;;;;;;;;;;5013195;28;20958;-54
2022/07/02 02:47:43;;;;;;;5.70;5.20;;;;;;;;;;5012966;28;20471;-54
2022/07/02 02:50:09;;;;;;;5.50;4.97;;;;;;;;;;5012835;28;20425;-54
2022/07/02 02:52:35;;;;;;;6.50;5.10;;;;;;;;;;5012919;28;20675;-54
2022/07/02 02:55:01;;;;;;;6.67;6.03;;;;;;;;;;5013202;28;20832;-55
2022/07/02 02:57:27;;;;;;;11.53;7.47;;;;;;;;;;5012843;28;20528;-54
2022/07/02 02:59:53;;;;;;;7.93;5.70;;;;;;;;;;5012911;28;20479;-53
2022/07/02 03:02:19;;;;;;;9.27;6.70;;;;;;;;;;5012795;28;20485;-55
2022/07/02 03:04:45;;;;;;;8.13;6.67;;;;;;;;;;5012726;28;20516;-55
2022/07/02 03:07:11;;;;;;;11.03;7.20;;;;;;;;;;5012347;28;20545;-56
2022/07/02 03:09:37;;;;;;;7.27;5.33;;;;;;;;;;5012296;28;20570;-56
2022/07/02 03:12:03;;;;;;;8.23;4.40;;;;;;;;;;5012794;28;20432;-56
2022/07/02 03:14:29;;;;;;;6.40;4.80;;;;;;;;;;5012609;28;20424;-55
2022/07/02 03:16:55;;;;;;;5.03;4.43;;;;;;;;;;5012333;28;20449;-56
2022/07/02 03:19:21;;;;;;;4.60;4.20;;;;;;;;;;5012477;28;20502;-54
2022/07/02 03:21:47;;;;;;;4.87;4.30;;;;;;;;;;5011817;28;20392;-54
2022/07/02 03:24:13;;;;;;;4.60;3.57;;;;;;;;;;5012333;28;20435;-54
2022/07/02 03:26:39;;;;;;;4.00;3.70;;;;;;;;;;5012589;28;20402;-54
2022/07/02 03:29:05;;;;;;;8.53;5.23;;;;;;;;;;5012605;28;20971;-54
2022/07/02 03:31:32;;;;;;;4.47;3.67;;;;;;;;;;5012287;28;20415;-53
2022/07/02 03:33:58;;;;;;;4.30;4.00;;;;;;;;;;5012623;28;20403;-54
2022/07/02 03:36:25;;;;;;;6.20;4.30;;;;;;;;;;5012375;28;20850;-53
2022/07/02 03:38:50;;;;;;;4.70;4.30;;;;;;;;;;5012600;28;20407;-54
2022/07/02 03:41:16;;;;;;;7.07;4.50;;;;;;;;;;5012182;28;20433;-54
2022/07/02 03:43:43;;;;;;;5.17;4.70;;;;;;;;;;5012601;28;20412;-54
2022/07/02 03:46:09;;;;;;;6.60;4.73;;;;;;;;;;5012308;28;20435;-53
2022/07/02 03:48:35;;;;;;;12.60;6.13;;;;;;;;;;5012343;28;20860;-54
2022/07/02 03:51:01;;;;;;;9.37;6.73;;;;;;;;;;5012099;28;20435;-54
2022/07/02 03:53:27;;;;;;;10.80;6.93;;;;;;;;;;5012363;28;20918;-55
2022/07/02 03:55:52;;;;;;;9.47;7.40;;;;;;;;;;5012424;28;20463;-55
2022/07/02 03:58:18;;;;;;;11.67;9.10;;;;;;;;;;5012194;28;20978;-54
2022/07/02 04:00:44;;;;;;;13.17;11.80;;;;;;;;;;5011978;28;20404;-54
2022/07/02 04:03:10;;;;;;;13.10;10.80;;;;;;;;;;5012166;28;20412;-53
2022/07/02 04:05:36;;;;;;;12.97;9.90;;;;;;;;;;5012128;28;20435;-54
2022/07/02 04:08:02;;;;;;;11.07;7.97;;;;;;;;;;5012098;28;20420;-54
2022/07/02 04:10:28;;;;;;;12.93;7.60;;;;;;;;;;5011855;28;20906;-55
2022/07/02 04:12:54;;;;;;;19.37;7.00;;;;;;;;;;5012141;28;20445;-55
2022/07/02 04:15:20;;;;;;;8.80;6.80;;;;;;;;;;5012591;28;20404;-54
2022/07/02 04:17:46;;;;;;;11.83;6.17;;;;;;;;;;5011800;28;21034;-55
2022/07/02 04:20:12;;;;;;;11.70;5.60;;;;;;;;;;5011854;28;20407;-56
2022/07/02 04:22:38;;;;;;;8.03;5.23;;;;;;;;;;5012122;28;20595;-53
2022/07/02 04:25:04;;;;;;;6.93;5.60;;;;;;;;;;5011398;28;20447;-54
2022/07/02 04:27:30;;;;;;;5.50;4.40;;;;;;;;;;5011256;28;20470;-54
2022/07/02 04:29:56;;;;;;;5.90;4.50;;;;;;;;;;5011745;28;20891;-54
2022/07/02 04:32:22;;;;;;;10.23;5.43;;;;;;;;;;5013914;28;20422;-53
2022/07/02 04:34:48;;;;;;;8.87;5.33;;;;;;;;;;5015869;28;20390;-55
2022/07/02 04:37:14;;;;;;;17.67;5.30;;;;;;;;;;5015883;28;20476;-55
2022/07/02 04:39:40;;;;;;;5.77;4.90;;;;;;;;;;5015713;28;20406;-55
2022/07/02 04:42:06;;;;;;;7.20;4.97;;;;;;;;;;5015684;28;20423;-54
2022/07/02 04:44:32;;;;;;;5.40;4.70;;;;;;;;;;5015720;28;20415;-55
2022/07/02 04:46:58;;;;;;;5.43;4.63;;;;;;;;;;5015457;28;20429;-55
2022/07/02 04:49:25;;;;;;;7.63;4.57;;;;;;;;;;5015572;28;20431;-54
2022/07/02 04:51:51;;;;;;;7.20;4.17;;;;;;;;;;5015399;28;20411;-55
2022/07/02 04:54:17;;;;;;;9.30;4.00;;;;;;;;;;5015519;28;20873;-55
2022/07/02 04:56:43;;;;;;;4.70;4.17;;;;;;;;;;5015786;28;20463;-54
2022/07/02 04:59:09;;;;;;;9.60;4.63;;;;;;;;;;5015548;28;20858;-54
2022/07/02 05:01:35;;;;;;;9.40;3.90;;;;;;;;;;5015228;28;20850;-56
2022/07/02 05:04:02;;;;;;;6.17;4.30;;;;;;;;;;5015396;28;20431;-56
2022/07/02 05:06:28;;;;;;;8.73;5.07;;;;;;;;;;5015183;28;20421;-55
2022/07/02 05:08:54;;;;;;;4.80;4.37;;;;;;;;;;5015317;28;20375;-56
2022/07/02 05:11:20;;;;;;;4.10;3.80;;;;;;;;;;5014801;28;20413;-55
2022/07/02 05:13:46;;;;;;;4.40;3.53;;;;;;;;;;5015135;28;20407;-54
2022/07/02 05:16:12;;;;;;;6.03;4.40;;;;;;;;;;5015059;28;20410;-56
2022/07/02 05:18:38;;;;;;;4.07;3.77;;;;;;;;;;5015038;28;20437;-56
2022/07/02 05:21:05;;;;;;;5.67;4.07;;;;;;;;;;5014738;28;20405;-54
2022/07/02 05:23:31;;;;;;;4.00;3.60;;;;;;;;;;5014939;28;20394;-54
2022/07/02 05:25:57;;;;;;;5.00;3.40;;;;;;;;;;5014878;28;20411;-55
2022/07/02 05:28:23;;;;;;;3.63;3.33;;;;;;;;;;5015064;28;20966;-55
2022/07/02 05:30:49;;;;;;;3.90;3.47;;;;;;;;;;5014545;28;20369;-56
2022/07/02 05:33:15;;;;;;;4.10;3.70;;;;;;;;;;5014683;28;20445;-56
2022/07/02 05:35:41;;;;;;;7.57;3.00;;;;;;;;;;5014352;28;20423;-54
2022/07/02 05:38:07;;;;;;;3.73;3.37;;;;;;;;;;5014268;28;20469;-54
2022/07/02 05:40:33;;;;;;;6.00;4.10;;;;;;;;;;5013803;28;20436;-54
2022/07/02 05:42:59;;;;;;;4.43;3.70;;;;;;;;;;5013881;28;20902;-55
2022/07/02 05:45:25;;;;;;;4.60;3.17;;;;;;;;;;5014766;28;20399;-54
2022/07/02 05:47:51;;;;;;;4.20;3.43;;;;;;;;;;5014401;28;20430;-56
2022/07/02 05:50:17;;;;;;;5.03;3.40;;;;;;;;;;5014407;28;20400;-56
2022/07/02 05:52:44;;;;;;;5.90;3.50;;;;;;;;;;5014547;28;21052;-56
2022/07/02 05:55:10;;;;;;;6.63;3.00;;;;;;;;;;5014470;28;20369;-54
2022/07/02 05:57:36;;;;;;;5.13;2.90;;;;;;;;;;5014311;28;20477;-56
2022/07/02 06:00:03;;;;;;;3.87;3.47;;;;;;;;;;5014243;28;20891;-55
2022/07/02 06:02:29;;;;;;;4.57;3.20;;;;;;;;;;5014382;28;20399;-55
2022/07/02 06:04:55;;;;;;;3.30;3.00;;;;;;;;;;5014410;28;20409;-55
2022/07/02 06:07:39;;;;;;;6.17;3.37;;;;;;;;;;5014206;28;20526;-56
2022/07/02 06:10:06;;;;;;;2.83;2.63;;;;;;;;;;5014281;28;20873;-57
2022/07/02 06:12:32;;;;;;;4.07;2.47;;;;;;;;;;5014185;28;20928;-54
2022/07/02 06:14:57;;;;;;;3.23;2.97;;;;;;;;;;5014349;28;20418;-55
2022/07/02 06:17:23;;;;;;;3.17;2.90;;;;;;;;;;5014071;28;20430;-56
2022/07/02 06:19:50;;;;;;;8.23;2.67;;;;;;;;;;5014029;28;20402;-54
2022/07/02 06:22:16;;;;;;;2.60;2.40;;;;;;;;;;5013975;28;20401;-56
2022/07/02 06:24:42;;;;;;;6.90;2.60;;;;;;;;;;5014145;28;20481;-55
2022/07/02 06:27:08;;;;;;;5.67;2.80;;;;;;;;;;5013939;28;20398;-56
2022/07/02 06:29:34;;;;;;;2.87;2.67;;;;;;;;;;5013843;28;20387;-55
2022/07/02 06:32:00;;;;;;;3.83;3.00;;;;;;;;;;5013687;28;20394;-56
2022/07/02 06:34:26;;;;;;;5.30;4.40;;;;;;;;;;5014274;28;20392;-56
2022/07/02 06:36:52;;;;;;;2.63;2.43;;;;;;;;;;5014046;28;20477;-57
2022/07/02 06:39:18;;;;;;;6.03;2.83;;;;;;;;;;5013730;28;20391;-57
2022/07/02 06:44:28;;;;;;;3.37;2.40;;;;;;;;;;5013195;28;20425;-57
2022/07/02 06:46:54;;;;;;;3.20;2.50;;;;;;;;;;5013561;28;20399;-57
2022/07/02 06:49:20;;;;;;;2.23;1.90;;;;;;;;;;5013145;28;20408;-57
2022/07/02 06:51:46;;;;;;;2.70;2.03;;;;;;;;;;5013337;28;20857;-57
2022/07/02 06:54:12;;;;;;;2.40;2.20;;;;;;;;;;5012655;28;20383;-57
2022/07/02 06:56:38;;;;;;;2.90;1.93;;;;;;;;;;5012731;28;20436;-57
2022/07/02 06:59:05;;;;;;;4.10;2.10;;;;;;;;;;5013091;28;20893;-57
2022/07/02 07:01:31;;;;;;;2.53;2.30;;;;;;;;;;5013262;28;20918;-57
2022/07/02 07:03:57;;;;;;;2.87;2.67;;;;;;;;;;5013557;28;20876;-57
2022/07/02 07:06:24;;;;;;;1.90;1.80;;;;;;;;;;5013429;28;20417;-57
2022/07/02 07:08:52;;;;;;;1.93;1.80;;;;;;;;;;5013275;28;20397;-57
2022/07/02 07:11:22;;;;;;;2.87;2.37;;;;;;;;;;5012919;28;20453;-57
2022/07/02 07:13:48;;;;;;;2.90;2.27;;;;;;;;;;5013294;28;20388;-57
2022/07/02 07:16:14;;;;;;;3.50;2.57;;;;;;;;;;5013374;28;20394;-57
2022/07/02 07:18:40;;;;;;;3.73;1.80;;;;;;;;;;5014266;28;20461;-58
2022/07/02 07:21:06;;;;;;;2.43;2.00;;;;;;;;;;5015311;28;20404;-58
2022/07/02 07:23:32;;;;;;;4.13;1.83;;;;;;;;;;5014147;28;20414;-57
2022/07/02 07:25:58;;;;;;;2.40;1.87;;;;;;;;;;5014493;28;20378;-59
2022/07/02 07:28:27;;;;;;;5.83;1.60;;;;;;;;;;5014820;28;20458;-58
2022/07/02 07:30:56;;;;;;;3.73;1.73;;;;;;;;;;5014054;28;20414;-58
2022/07/02 07:33:22;;;;;;;2.90;1.30;;;;;;;;;;5015207;28;20416;-59
2022/07/02 07:35:48;;;;;;;4.63;1.53;;;;;;;;;;5014403;28;20442;-57
2022/07/02 07:38:14;;;;;;;2.10;1.43;;;;;;;;;;5015074;28;20475;-58
2022/07/02 07:40:40;;;;;;;1.37;1.27;;;;;;;;;;5015260;28;20461;-58
2022/07/02 07:43:06;;;;;;;4.60;1.70;;;;;;;;;;5015012;28;20770;-58
2022/07/02 07:45:32;;;;;;;2.60;1.40;;;;;;;;;;5013677;28;20910;-58
2022/07/02 07:47:58;;;;;;;2.10;1.47;;;;;;;;;;5014204;28;20518;-57
2022/07/02 07:50:24;;;;;;;2.70;1.60;;;;;;;;;;5014519;28;20434;-59
2022/07/02 07:52:50;;;;;;;1.30;1.20;;;;;;;;;;5012976;28;20921;-58
2022/07/02 07:55:16;;;;;;;4.77;1.57;;;;;;;;;;5014648;28;20420;-58
2022/07/02 07:57:42;;;;;;;3.87;1.13;;;;;;;;;;5014898;28;20975;-58
2022/07/02 08:00:08;;;;;;;2.33;1.20;;;;;;;;;;5014910;28;20416;-57
2022/07/02 08:02:34;;;;;;;1.57;1.00;;;;;;;;;;5012883;28;20444;-58
2022/07/02 08:05:00;;;;;;;1.00;0.90;;;;;;;;;;5011874;28;20414;-58
2022/07/02 08:07:26;;;;;;;1.30;1.20;;;;;;;;;;5011707;28;20434;-58
2022/07/02 08:09:54;;;;;;;1.23;1.10;;;;;;;;;;5012031;28;20424;-58
2022/07/02 08:12:23;;;;;;;1.87;1.30;;;;;;;;;;5013297;28;20410;-58
2022/07/02 08:14:49;;;;;;;1.20;1.10;;;;;;;;;;5012489;28;20418;-58
2022/07/02 08:17:15;;;;;;;1.80;0.97;;;;;;;;;;5012388;28;20524;-59
2022/07/02 08:19:41;;;;;;;1.73;1.10;;;;;;;;;;5013535;28;20403;-59
2022/07/02 08:22:07;;;;;;;3.43;1.10;;;;;;;;;;5014660;28;20407;-59
2022/07/02 08:24:33;;;;;;;1.13;1.00;;;;;;;;;;5013736;28;20419;-59
2022/07/02 08:26:59;;;;;;;1.43;1.00;;;;;;;;;;5012794;28;20442;-58
2022/07/02 08:29:25;;;;;;;2.10;1.10;;;;;;;;;;5012442;28;20407;-59
2022/07/02 08:31:52;;;;;;;1.70;1.23;;;;;;;;;;5012064;28;20411;-59
2022/07/02 08:34:18;;;;;;;1.23;0.87;;;;;;;;;;5012038;28;20415;-58
2022/07/02 08:36:44;;;;;;;1.77;1.20;;;;;;;;;;5012152;28;20823;-59
2022/07/02 08:39:10;;;;;;;2.60;1.17;;;;;;;;;;5009216;28;20933;-59
2022/07/02 08:41:36;;;;;;;3.13;1.00;;;;;;;;;;5011458;28;20513;-59
2022/07/02 08:44:02;;;;;;;1.40;1.13;;;;;;;;;;5009786;28;20399;-59
2022/07/02 08:46:30;;;;;;;0.90;0.80;;;;;;;;;;5007396;28;20419;-59
2022/07/02 08:48:56;;;;;;;1.70;1.10;;;;;;;;;;4990625;28;20439;-59
2022/07/02 08:51:22;;;;;;;2.50;0.87;;;;;;;;;;4991917;28;20411;-58
2022/07/02 08:53:48;;;;;;;4.77;0.80;;;;;;;;;;4991969;28;20404;-58
2022/07/02 08:56:14;;;;;;;1.23;0.83;;;;;;;;;;4992216;28;20765;-59
2022/07/02 08:58:40;;;;;;;2.27;0.90;;;;;;;;;;4994336;28;20584;-58
2022/07/02 09:01:08;;;;;;;1.07;0.77;;;;;;;;;;5011382;28;20399;-58
2022/07/02 09:03:34;;;;;;;1.37;0.70;;;;;;;;;;5012120;28;20456;-57
2022/07/02 09:06:01;;;;;;;1.50;0.87;;;;;;;;;;5011778;28;20450;-57
2022/07/02 09:08:27;;;;;;;0.93;0.83;;;;;;;;;;5011612;28;20422;-57
2022/07/02 09:10:53;;;;;;;1.13;0.93;;;;;;;;;;5011830;28;20875;-57
2022/07/02 09:13:19;;;;;;;1.40;0.90;;;;;;;;;;5012374;28;20883;-57
2022/07/02 09:15:46;;;;;;;1.20;0.90;;;;;;;;;;5011435;28;20403;-57
2022/07/02 09:18:12;;;;;;;1.50;1.20;;;;;;;;;;5011749;28;20554;-57
2022/07/02 09:20:38;;;;;;;4.00;0.70;;;;;;;;;;5015653;28;20602;-57
2022/07/02 09:23:09;;;;;;;1.23;1.00;;;;;;;;;;5015268;28;20394;-57
2022/07/02 09:25:35;;;;;;;0.80;0.70;;;;;;;;;;5015013;28;20406;-57
2022/07/02 09:28:05;;;;;;;2.40;0.87;;;;;;;;;;5015053;28;20430;-57
2022/07/02 09:30:37;;;;;;;1.63;0.90;;;;;;;;;;5014400;28;20406;-57
2022/07/02 09:35:48;;;;;;;1.20;0.87;;;;;;;;;;5014990;28;20778;-57
2022/07/02 09:38:14;;;;;;;5.13;0.80;;;;;;;;;;5014668;28;20553;-56
2022/07/02 09:40:53;;;;;;;1.63;0.70;;;;;;;;;;5014074;28;20498;-57
2022/07/02 09:43:29;;;;;;;0.77;0.77;;;;;;;;;;5011397;28;20909;-57
2022/07/02 09:45:56;;;;;;;1.13;0.90;;;;;;;;;;5014356;28;20879;-56
2022/07/02 09:48:22;;;;;;;3.30;0.90;;;;;;;;;;5013908;28;20438;-57
2022/07/02 09:50:48;;;;;;;1.83;0.93;;;;;;;;;;5014530;28;20417;-57
2022/07/02 09:53:14;;;;;;;1.60;1.10;;;;;;;;;;5014528;28;20423;-57
2022/07/02 09:55:40;;;;;;;1.87;0.90;;;;;;;;;;5015231;28;20410;-57
2022/07/02 09:58:06;;;;;;;0.80;0.70;;;;;;;;;;5015651;28;20462;-57
2022/07/02 10:00:33;;;;;;;3.37;0.90;;;;;;;;;;5014939;28;20496;-57
2022/07/02 10:03:00;;;;;;;1.77;0.90;;;;;;;;;;5015585;28;20494;-57
2022/07/02 10:05:33;;;;;;;1.10;0.80;;;;;;;;;;5015715;28;20430;-57
2022/07/02 10:07:59;;;;;;;1.30;0.83;;;;;;;;;;5015243;28;20438;-58
2022/07/02 10:10:33;;;;;;;5.43;0.90;;;;;;;;;;5014906;28;20407;-58
2022/07/02 10:12:59;;;;;;;1.90;0.70;;;;;;;;;;5014019;28;20454;-59
2022/07/02 10:15:29;;;;;;;1.67;0.80;;;;;;;;;;5014062;28;20403;-57
2022/07/02 10:17:55;;;;;;;0.83;0.77;;;;;;;;;;5013572;28;20545;-58
2022/07/02 10:20:23;;;;;;;1.20;0.83;;;;;;;;;;5013777;28;20534;-58
2022/07/02 10:22:49;;;;;;;2.13;0.80;;;;;;;;;;5013819;28;20424;-57
2022/07/02 10:25:16;;;;;;;1.70;0.73;;;;;;;;;;5014116;28;20399;-57
2022/07/02 10:27:43;;;;;;;1.17;0.87;;;;;;;;;;5013647;28;20459;-58
2022/07/02 10:30:09;;;;;;;2.60;0.80;;;;;;;;;;5012085;28;20418;-57
2022/07/02 10:32:50;;;;;;;3.47;0.90;;;;;;;;;;5019805;28;20419;-57
2022/07/02 10:35:16;;;;;;;2.43;1.10;;;;;;;;;;5013786;28;20530;-58
2022/07/02 10:37:43;;;;;;;2.53;1.00;;;;;;;;;;5012980;28;20463;-58
2022/07/02 10:40:10;;;;;;;1.73;1.03;;;;;;;;;;5013310;28;20959;-58
2022/07/02 10:42:40;;;;;;;1.03;0.93;;;;;;;;;;5012975;28;20903;-58
2022/07/02 10:45:10;;;;;;;1.30;0.87;;;;;;;;;;5013438;28;20403;-58
2022/07/02 10:47:36;;;;;;;1.00;0.80;;;;;;;;;;5012933;28;20450;-58
2022/07/02 10:50:02;;;;;;;2.70;0.90;;;;;;;;;;5014359;28;20408;-57
2022/07/02 10:52:38;;;;;;;1.37;0.80;;;;;;;;;;5013228;28;20426;-57
2022/07/02 10:55:04;;;;;;;2.10;0.90;;;;;;;;;;5013346;28;20410;-57
2022/07/02 10:57:30;;;;;;;1.00;0.70;;;;;;;;;;5013142;28;20473;-58
2022/07/02 10:59:56;;;;;;;0.80;0.70;;;;;;;;;;5013146;28;20407;-57
2022/07/02 11:02:33;;;;;;;0.90;0.80;;;;;;;;;;5012749;28;20411;-57
2022/07/02 11:05:07;;;;;;;1.03;0.90;;;;;;;;;;5012824;28;20249;-58
2022/07/02 11:07:42;;;;;;;1.90;0.87;;;;;;;;;;5001481;28;20435;-58
2022/07/02 11:10:09;;;;;;;2.20;1.00;;;;;;;;;;5012703;28;20797;-58
2022/07/02 11:12:57;;;;;;;1.17;0.90;;;;;;;;;;5013212;28;20425;-58
2022/07/02 11:15:38;;;;;;;2.60;0.73;;;;;;;;;;5013420;28;20435;-58
2022/07/02 11:18:06;;;;;;;1.40;0.83;;;;;;;;;;5012517;28;20458;-59
2022/07/02 11:20:35;;;;;;;1.90;0.80;;;;;;;;;;5012482;28;20486;-59
2022/07/02 11:23:02;;;;;;;3.03;0.93;;;;;;;;;;5012809;28;20400;-58
2022/07/02 11:25:32;;;;;;;2.10;1.20;;;;;;;;;;5012373;28;20510;-58
2022/07/02 11:28:02;;;;;;;1.30;0.80;;;;;;;;;;4992698;28;20982;-58
2022/07/02 11:30:31;;;;;;;1.77;0.90;;;;;;;;;;4993975;28;20436;-58
2022/07/02 11:32:57;;;;;;;0.80;0.70;;;;;;;;;;5013059;28;20415;-59
2022/07/02 11:35:24;;;;;;;1.30;0.90;;;;;;;;;;5011565;28;20844;-58
2022/07/02 11:37:54;;;;;;;1.00;0.80;;;;;;;;;;5012134;28;20462;-58
2022/07/02 11:40:21;;;;;;;1.87;1.23;;;;;;;;;;5012399;28;20816;-59
2022/07/02 11:42:47;;;;;;;3.20;0.90;;;;;;;;;;5011734;28;20922;-59
2022/07/02 11:45:13;;;;;;;0.80;0.70;;;;;;;;;;5011206;28;20452;-59
2022/07/02 11:47:43;;;;;;;3.73;1.00;;;;;;;;;;5010195;28;21201;-57
2022/07/02 11:50:10;;;;;;;1.43;0.90;;;;;;;;;;5006416;28;20426;-58
2022/07/02 11:52:35;;;;;;;2.93;0.97;;;;;;;;;;5011152;28;20423;-57
2022/07/02 11:55:05;;;;;;;1.10;0.80;;;;;;;;;;5010914;28;20775;-58
2022/07/02 11:57:34;;;;;;;1.63;1.00;;;;;;;;;;5010215;28;20466;-58
2022/07/02 12:00:00;;;;;;;1.67;0.80;;;;;;;;;;5011512;28;20406;-57
2022/07/02 12:02:36;;;;;;;0.90;0.80;;;;;;;;;;5012476;28;20558;-58
2022/07/02 12:05:13;;;;;;;1.70;1.10;;;;;;;;;;5012533;28;20922;-58
2022/07/02 12:07:41;;;;;;;1.40;1.00;;;;;;;;;;5011755;28;20513;-58
2022/07/02 12:10:08;;;;;;;3.23;1.00;;;;;;;;;;5011613;28;20549;-58
2022/07/02 12:12:34;;;;;;;1.30;1.10;;;;;;;;;;5011368;28;20804;-56
2022/07/02 12:15:01;;;;;;;1.77;0.77;;;;;;;;;;5012123;28;20407;-57
2022/07/02 12:17:28;;;;;;;0.70;0.60;;;;;;;;;;5011459;28;20474;-57
2022/07/02 12:19:54;;;;;;;1.67;0.90;;;;;;;;;;5011377;28;20421;-58
2022/07/02 12:22:30;;;;;;;2.30;0.93;;;;;;;;;;5011427;28;20937;-57
2022/07/02 12:24:56;;;;;;;1.40;1.23;;;;;;;;;;5010463;28;20474;-57
2022/07/02 12:27:25;;;;;;;0.90;0.77;;;;;;;;;;5010848;28;20785;-57
2022/07/02 12:29:58;;;;;;;1.20;0.90;;;;;;;;;;5001039;28;20427;-57
2022/07/02 12:32:27;;;;;;;5.23;1.00;;;;;;;;;;5004604;28;20442;-57
2022/07/02 12:34:55;;;;;;;0.87;0.67;;;;;;;;;;5004263;28;20469;-57
2022/07/02 12:37:21;;;;;;;1.53;0.80;;;;;;;;;;5010915;28;20467;-58
2022/07/02 12:39:48;;;;;;;1.57;0.80;;;;;;;;;;5011627;28;20419;-54
2022/07/02 12:42:15;;;;;;;1.47;0.90;;;;;;;;;;4998825;28;20474;-54
2022/07/02 12:44:50;;;;;;;1.20;1.00;;;;;;;;;;5011756;28;20405;-55
2022/07/02 12:47:23;;;;;;;2.13;0.80;;;;;;;;;;4994042;28;20952;-56
2022/07/02 12:49:53;;;;;;;1.37;0.80;;;;;;;;;;4991736;28;20396;-54
2022/07/02 12:52:19;;;;;;;1.40;0.87;;;;;;;;;;4992272;28;20416;-55
2022/07/02 12:54:45;;;;;;;1.30;1.20;;;;;;;;;;5012612;28;20925;-56
2022/07/02 12:57:15;;;;;;;2.50;0.90;;;;;;;;;;5015156;28;20512;-56
2022/07/02 12:59:41;;;;;;;2.47;0.90;;;;;;;;;;4995644;28;20522;-55
2022/07/02 13:02:09;;;;;;;1.07;0.80;;;;;;;;;;4995388;28;20821;-56
2022/07/02 13:04:35;;;;;;;1.03;0.93;;;;;;;;;;4995394;28;20415;-55
2022/07/02 13:07:01;;;;;;;1.30;1.03;;;;;;;;;;4995386;28;20423;-55
2022/07/02 13:09:27;;;;;;;0.80;0.80;;;;;;;;;;4995372;28;20915;-56
2022/07/02 13:11:53;;;;;;;1.20;0.93;;;;;;;;;;4995228;28;20407;-55
2022/07/02 13:14:19;;;;;;;2.70;0.83;;;;;;;;;;4995504;28;20465;-55
2022/07/02 13:16:45;;;;;;;1.03;0.93;;;;;;;;;;4995068;28;20851;-56
2022/07/02 13:19:11;;;;;;;1.50;1.07;;;;;;;;;;4995077;28;20231;-58
2022/07/02 13:21:37;;;;;;;1.30;0.87;;;;;;;;;;4995200;28;20191;-59
2022/07/02 13:24:03;;;;;;;1.30;0.80;;;;;;;;;;5005883;28;20177;-57
2022/07/02 13:26:29;;;;;;;1.53;1.00;;;;;;;;;;5010799;28;20950;-57
2022/07/02 13:28:55;;;;;;;0.90;0.73;;;;;;;;;;5012119;28;20918;-59
2022/07/02 13:31:21;;;;;;;1.27;0.80;;;;;;;;;;4994572;28;20450;-58
2022/07/02 13:33:47;;;;;;;10.33;0.87;;;;;;;;;;4995344;28;20935;-57
2022/07/02 13:36:13;;;;;;;2.17;1.20;;;;;;;;;;4994844;28;20412;-58
2022/07/02 13:38:39;;;;;;;1.30;1.20;;;;;;;;;;4994861;28;20467;-58
2022/07/02 13:41:05;;;;;;;2.50;0.90;;;;;;;;;;4997381;28;20404;-58
2022/07/02 13:43:31;;;;;;;1.20;0.80;;;;;;;;;;5014559;28;20493;-59
2022/07/02 13:45:57;;;;;;;1.53;0.90;;;;;;;;;;5014196;28;20399;-59
2022/07/02 13:48:23;;;;;;;0.80;0.70;;;;;;;;;;5014292;28;20862;-60
2022/07/02 13:50:49;;;;;;;4.93;0.90;;;;;;;;;;5013975;28;20408;-57
2022/07/02 13:53:15;;;;;;;4.40;1.10;;;;;;;;;;5014331;28;20490;-57
2022/07/02 13:55:41;;;;;;;3.77;0.60;;;;;;;;;;5014436;28;20399;-57
2022/07/02 13:58:07;;;;;;;3.57;0.83;;;;;;;;;;5013804;28;20450;-56
2022/07/02 14:00:33;;;;;;;3.57;0.77;;;;;;;;;;5013125;28;20422;-56
2022/07/02 14:02:59;;;;;;;0.80;0.80;;;;;;;;;;5014130;28;20489;-57
2022/07/02 14:05:25;;;;;;;2.10;0.80;;;;;;;;;;5013290;28;20446;-57
2022/07/02 14:07:51;;;;;;;1.03;0.93;;;;;;;;;;5013968;28;20667;-58
2022/07/02 14:10:17;;;;;;;1.43;1.20;;;;;;;;;;5013469;28;20906;-58
2022/07/02 14:12:43;;;;;;;1.00;0.83;;;;;;;;;;5013681;28;20427;-59
2022/07/02 14:15:09;;;;;;;1.03;0.80;;;;;;;;;;5013490;28;20523;-58
2022/07/02 14:17:35;;;;;;;1.67;0.90;;;;;;;;;;5013698;28;20571;-59
2022/07/02 14:20:01;;;;;;;1.00;0.80;;;;;;;;;;5012506;28;22154;-58
2022/07/02 14:22:29;;;;;;;3.00;1.30;;;;;;;;;;5013563;28;20425;-57
2022/07/02 14:24:55;;;;;;;0.90;0.73;;;;;;;;;;5013962;28;20407;-56
2022/07/02 14:27:21;;;;;;;4.80;0.90;;;;;;;;;;5013466;28;20470;-57
2022/07/02 14:29:48;;;;;;;2.97;0.83;;;;;;;;;;5013512;28;20438;-56
2022/07/02 14:32:14;;;;;;;1.67;1.07;;;;;;;;;;5013323;28;20415;-57
2022/07/02 14:34:40;;;;;;;1.07;0.60;;;;;;;;;;5013640;28;20407;-57
2022/07/02 14:37:06;;;;;;;1.10;1.00;;;;;;;;;;5013144;28;20465;-58
2022/07/02 14:39:32;;;;;;;1.00;0.73;;;;;;;;;;5013477;28;20419;-57
2022/07/02 14:41:59;;;;;;;4.00;1.07;;;;;;;;;;5013219;28;20403;-58
2022/07/02 14:44:25;;;;;;;0.90;0.80;;;;;;;;;;5013357;28;20437;-57
2022/07/02 14:46:51;;;;;;;0.90;0.70;;;;;;;;;;5013185;28;20427;-58
2022/07/02 14:49:17;;;;;;;0.90;0.70;;;;;;;;;;5013338;28;20407;-57